Time;durP1;ratioP1;P1;durP2;ratioP2;P2;SDS_P1;SDS_P2;PMS_P1;PMS_P2;Temp;Humidity;BMP_temperature;BMP_pressure;BME280_temperature;BME280_humidity;BME280_pressure;Samples;Min_cycle;Max_cycle;Signal;HPM_P1;HPM_P2
2021/03/22 00:01:36;;;;;;;15.50;11.35;;;;;;;30.57;51.83;101046.53;5032709;28;69983;-31
2021/03/22 00:04:06;;;;;;;18.85;11.77;;;;;;;30.64;52.85;101043.81;5035429;28;65992;-32
2021/03/22 00:06:35;;;;;;;19.08;11.82;;;;;;;30.55;53.14;101039.69;5042320;27;69139;-34
2021/03/22 00:09:05;;;;;;;19.15;12.55;;;;;;;30.64;53.66;101054.63;5034253;28;67098;-33
2021/03/22 00:11:34;;;;;;;28.08;13.40;;;;;;;30.71;53.54;101056.28;5035339;28;70014;-33
2021/03/22 00:14:04;;;;;;;22.77;13.00;;;;;;;30.68;53.56;101061.28;5036182;28;65400;-32
2021/03/22 00:16:33;;;;;;;24.58;12.90;;;;;;;30.71;53.70;101058.16;5019928;27;69322;-32
2021/03/22 00:19:03;;;;;;;24.23;14.15;;;;;;;30.71;55.25;101075.22;5033261;28;67295;-33
2021/03/22 00:21:33;;;;;;;24.05;14.88;;;;;;;30.73;54.51;101069.59;5033144;28;68510;-32
2021/03/22 00:24:03;;;;;;;19.95;15.20;;;;;;;30.75;54.39;101066.66;5036962;28;65142;-33
2021/03/22 00:26:34;;;;;;;23.88;14.15;;;;;;;30.62;54.24;101041.31;5036471;28;71147;-30
2021/03/22 00:29:04;;;;;;;20.38;14.55;;;;;;;30.80;54.78;101085.84;5034750;28;66060;-29
2021/03/22 00:31:34;;;;;;;30.83;15.48;;;;;;;30.84;54.86;101087.94;5020332;28;70631;-30
2021/03/22 00:34:03;;;;;;;15.82;13.80;;;;;;;30.88;54.29;101085.59;5040473;28;66099;-27
2021/03/22 00:36:33;;;;;;;20.55;13.10;;;;;;;30.91;54.69;101088.72;5046758;28;70046;-30
2021/03/22 00:39:04;;;;;;;18.00;11.82;;;;;;;30.83;54.32;101090.84;5044263;28;66936;-29
2021/03/22 00:41:33;;;;;;;19.85;12.07;;;;;;;30.81;54.33;101090.22;5036872;28;69239;-28
2021/03/22 00:44:04;;;;;;;16.25;11.88;;;;;;;30.89;53.86;101098.09;5034251;28;65747;-28
2021/03/22 00:46:34;;;;;;;11.50;10.27;;;;;;;30.85;53.65;101089.56;5031577;28;69928;-28
2021/03/22 00:49:06;;;;;;;10.70;9.65;;;;;;;30.94;53.60;101103.69;5041726;28;65632;-27
2021/03/22 00:51:36;;;;;;;10.13;9.18;;;;;;;30.90;53.62;101097.88;5036106;28;70038;-28
2021/03/22 00:54:05;;;;;;;13.45;9.07;;;;;;;30.91;53.88;101099.53;5035392;28;66034;-28
2021/03/22 00:56:35;;;;;;;9.15;8.43;;;;;;;30.92;53.03;101098.50;5032958;28;69104;-28
2021/03/22 00:59:04;;;;;;;9.38;8.50;;;;;;;30.89;53.47;101100.81;5055017;28;66064;-28
2021/03/22 01:01:34;;;;;;;8.70;8.00;;;;;;;30.92;53.19;101112.06;5040945;28;69289;-28
2021/03/22 01:04:04;;;;;;;8.32;7.63;;;;;;;30.90;53.14;101099.78;5051398;28;65164;-29
2021/03/22 01:06:34;;;;;;;9.90;7.32;;;;;;;30.93;52.77;101102.06;5038620;28;70721;-28
2021/03/22 01:09:05;;;;;;;7.32;6.88;;;;;;;30.78;52.88;101071.66;5045865;28;65193;-28
2021/03/22 01:11:34;;;;;;;7.68;7.00;;;;;;;30.92;52.71;101100.38;5038273;28;69907;-28
2021/03/22 01:14:04;;;;;;;7.35;6.75;;;;;;;30.97;52.49;101100.56;5039554;28;65410;-28
2021/03/22 01:16:36;;;;;;;7.80;6.95;;;;;;;30.97;52.92;101103.25;5048140;28;71045;-28
2021/03/22 01:19:13;;;;;;;6.30;5.90;;;;;;;30.97;53.10;101103.25;5044422;28;66122;-28
2021/03/22 01:21:46;;;;;;;11.55;6.78;;;;;;;31.00;52.27;101102.00;5041130;27;69452;-28
2021/03/22 01:24:20;;;;;;;10.15;6.20;;;;;;;31.00;52.16;101089.28;5038642;27;66164;-34
2021/03/22 01:26:53;;;;;;;6.57;5.20;;;;;;;31.02;52.62;101095.31;5041869;28;70087;-28
2021/03/22 01:29:34;;;;;;;6.35;5.75;;;;;;;30.88;51.90;101066.66;5054290;28;65316;-28
2021/03/22 01:32:07;;;;;;;5.38;5.07;;;;;;;31.05;52.20;101092.19;5047088;28;69549;-29
2021/03/22 01:34:44;;;;;;;5.28;4.78;;;;;;;31.04;52.39;101082.41;5044931;28;66135;-30
2021/03/22 01:37:13;;;;;;;4.80;4.50;;;;;;;31.05;51.88;101092.19;5038227;28;70083;-27
2021/03/22 01:39:43;;;;;;;4.78;4.40;;;;;;;31.06;51.64;101093.00;5037781;28;66080;-28
2021/03/22 01:42:24;;;;;;;5.07;4.78;;;;;;;31.09;51.70;101096.13;5066438;27;69471;-29
2021/03/22 01:45:09;;;;;;;9.13;4.28;;;;;;;31.07;51.60;101092.81;5034230;27;66284;-29
2021/03/22 01:47:38;;;;;;;4.15;3.90;;;;;;;31.10;51.75;101116.75;5037706;28;70524;-29
2021/03/22 01:50:26;;;;;;;4.55;4.18;;;;;;;31.13;51.78;101108.19;5040923;28;65418;-28
2021/03/22 01:52:57;;;;;;;4.55;4.15;;;;;;;31.16;51.48;101107.75;5036862;28;69186;-28
2021/03/22 01:55:27;;;;;;;4.93;3.90;;;;;;;31.18;51.72;101107.56;5034953;28;66395;-28
2021/03/22 01:57:57;;;;;;;4.18;3.83;;;;;;;31.15;51.78;101103.41;5039796;28;69978;-29
2021/03/22 02:00:32;;;;;;;4.20;3.80;;;;;;;31.05;51.68;101084.06;5039400;28;65306;-31
2021/03/22 02:03:14;;;;;;;5.05;4.75;;;;;;;31.19;51.82;101102.94;5024320;28;68451;-28
2021/03/22 02:05:47;;;;;;;6.20;4.95;;;;;;;31.23;51.37;101112.31;5040696;28;65364;-29
2021/03/22 02:08:21;;;;;;;4.03;3.72;;;;;;;31.25;51.24;101102.09;5028941;28;69374;-28
2021/03/22 02:10:51;;;;;;;4.55;4.25;;;;;;;31.27;50.93;101102.69;5037020;28;65952;-28
2021/03/22 02:13:28;;;;;;;4.75;4.45;;;;;;;31.28;51.61;101112.47;5036469;28;70096;-28
2021/03/22 02:16:12;;;;;;;6.03;5.50;;;;;;;31.28;51.67;101110.59;5038134;28;65320;-28
2021/03/22 02:18:58;;;;;;;5.00;4.70;;;;;;;31.30;51.26;101104.97;5041262;28;69162;-28
2021/03/22 02:21:52;;;;;;;5.70;5.22;;;;;;;31.31;51.33;101107.44;5035375;28;66210;-30
2021/03/22 02:24:41;;;;;;;5.18;4.78;;;;;;;31.31;51.39;101114.75;5027108;28;68687;-29
2021/03/22 02:28:22;;;;;;;4.47;4.18;;;;;;;31.25;51.75;101104.78;5028062;28;65826;-29
2021/03/22 02:31:42;;;;;;;5.35;5.05;;;;;;;31.34;51.33;101115.16;5026607;28;70073;-28
2021/03/22 02:34:41;;;;;;;5.00;4.60;;;;;;;31.41;50.60;101115.16;5016442;28;65194;-28
2021/03/22 02:37:28;;;;;;;5.55;4.55;;;;;;;31.25;51.00;101083.09;5033224;28;70709;-28
2021/03/22 02:40:10;;;;;;;6.20;3.67;;;;;;;31.42;51.03;101105.97;5036321;27;66350;-28
2021/03/22 02:42:45;;;;;;;4.10;3.80;;;;;;;31.48;50.92;101098.81;5028774;28;69965;-29
2021/03/22 02:45:26;;;;;;;5.82;4.80;;;;;;;31.50;51.14;101108.41;5036282;27;66656;-28
2021/03/22 02:47:55;;;;;;;4.95;4.65;;;;;;;31.52;50.66;101106.31;5035857;28;70028;-28
2021/03/22 02:50:39;;;;;;;5.35;4.22;;;;;;;31.55;50.25;101094.19;5032063;28;66102;-28
2021/03/22 02:53:25;;;;;;;3.90;3.70;;;;;;;31.55;50.40;101094.19;5033789;28;70564;-28
2021/03/22 02:56:33;;;;;;;4.38;4.07;;;;;;;31.58;50.47;101096.47;5028686;28;65449;-28
2021/03/22 02:59:40;;;;;;;5.10;3.30;;;;;;;31.57;50.15;101084.81;5009585;28;69409;-29
2021/03/22 03:02:28;;;;;;;4.18;3.80;;;;;;;31.66;50.39;101092.66;5034908;28;66793;-28
2021/03/22 03:05:09;;;;;;;4.25;3.95;;;;;;;31.64;49.89;101086.63;5032980;28;70692;-28
2021/03/22 03:07:38;;;;;;;4.43;3.22;;;;;;;31.73;49.71;101079.88;5034689;28;66050;-28
2021/03/22 03:10:10;;;;;;;3.38;3.17;;;;;;;31.70;50.26;101080.31;5035736;27;69266;-28
2021/03/22 03:12:40;;;;;;;;;;;;;;;31.66;50.38;101084.53;5030589;28;66231;-28
2021/03/22 03:15:12;;;;;;;3.15;2.95;;;;;;;31.75;49.92;101075.06;5035116;28;69258;-27
2021/03/22 03:17:54;;;;;;;3.13;2.90;;;;;;;31.82;49.47;101073.13;5031407;28;66193;-29
2021/03/22 03:20:27;;;;;;;2.75;2.55;;;;;;;31.82;49.40;101070.41;5032330;28;69988;-28
2021/03/22 03:22:59;;;;;;;3.30;3.10;;;;;;;31.82;50.00;101073.13;5063041;27;65326;-29
2021/03/22 03:25:30;;;;;;;3.33;3.13;;;;;;;31.86;49.47;101082.47;5036024;28;69905;-28
2021/03/22 03:27:59;;;;;;;3.30;3.00;;;;;;;31.87;49.93;101069.72;5034679;28;66140;-29
2021/03/22 03:30:36;;;;;;;2.80;2.60;;;;;;;31.87;49.52;101057.00;5032101;28;71025;-29
2021/03/22 03:33:25;;;;;;;3.47;2.35;;;;;;;31.89;49.35;101067.63;5034385;28;64983;-29
2021/03/22 03:35:55;;;;;;;3.00;2.80;;;;;;;31.95;49.66;101066.75;5032082;28;69930;-30
2021/03/22 03:38:24;;;;;;;3.15;2.95;;;;;;;31.96;49.06;101066.56;5034117;28;66173;-29
2021/03/22 03:40:54;;;;;;;3.03;2.80;;;;;;;32.02;49.16;101060.22;5034534;28;69803;-30
2021/03/22 03:43:23;;;;;;;4.40;2.35;;;;;;;32.10;48.82;101047.44;5032903;28;65846;-28
2021/03/22 03:45:53;;;;;;;4.32;2.58;;;;;;;32.10;48.75;101052.88;5032799;28;70187;-30
2021/03/22 03:48:27;;;;;;;2.58;2.40;;;;;;;32.11;48.72;101046.38;5035675;28;66190;-30
2021/03/22 03:51:00;;;;;;;2.65;2.45;;;;;;;32.05;48.79;101027.22;5032090;28;70588;-29
2021/03/22 03:53:30;;;;;;;2.28;2.17;;;;;;;32.20;48.47;101047.72;5035670;28;66236;-28
2021/03/22 03:56:01;;;;;;;2.35;2.25;;;;;;;32.23;48.42;101042.69;5032727;28;69601;-29
2021/03/22 03:58:30;;;;;;;2.30;2.20;;;;;;;32.24;48.80;101043.53;5034180;28;66455;-27
2021/03/22 04:01:00;;;;;;;2.20;2.10;;;;;;;32.25;48.76;101045.16;5033316;28;70063;-29
2021/03/22 04:03:33;;;;;;;2.47;2.28;;;;;;;32.30;48.56;101036.34;5035189;28;65578;-28
2021/03/22 04:06:22;;;;;;;2.10;2.00;;;;;;;32.28;48.49;101028.44;5035064;28;69809;-28
2021/03/22 04:09:21;;;;;;;2.30;2.20;;;;;;;32.39;48.25;101022.22;5032851;28;65420;-28
2021/03/22 04:11:51;;;;;;;5.70;2.00;;;;;;;32.29;48.30;101008.38;5032259;28;69274;-29
2021/03/22 04:14:28;;;;;;;2.95;2.70;;;;;;;32.41;47.80;101033.72;5033417;28;65256;-30
2021/03/22 04:16:57;;;;;;;2.72;2.30;;;;;;;32.44;48.24;101021.56;5031802;28;69610;-30
2021/03/22 04:19:27;;;;;;;2.40;2.30;;;;;;;32.46;48.44;101020.31;5035832;28;66068;-28
2021/03/22 04:21:56;;;;;;;2.20;2.10;;;;;;;32.38;48.05;100996.16;5033463;28;70094;-29
2021/03/22 04:24:26;;;;;;;2.42;2.22;;;;;;;32.50;47.90;101009.81;5035898;28;65235;-31
2021/03/22 04:26:55;;;;;;;2.25;2.15;;;;;;;32.53;47.88;101008.53;5033096;28;70280;-31
2021/03/22 04:29:24;;;;;;;2.25;2.15;;;;;;;32.53;47.82;100997.66;5036804;28;65324;-29
2021/03/22 04:31:54;;;;;;;3.17;2.97;;;;;;;32.43;47.77;100977.31;5034962;28;69302;-29
2021/03/22 04:34:23;;;;;;;3.05;2.85;;;;;;;32.51;47.98;100983.50;5038791;28;65980;-29
2021/03/22 04:36:53;;;;;;;2.97;2.78;;;;;;;32.64;47.37;100999.59;5035104;28;69984;-30
2021/03/22 04:39:22;;;;;;;2.92;2.72;;;;;;;32.66;47.45;100990.19;5037061;28;66139;-30
2021/03/22 04:41:52;;;;;;;3.00;2.72;;;;;;;32.67;47.25;100989.09;5039478;27;68332;-29
2021/03/22 04:44:21;;;;;;;2.88;2.67;;;;;;;32.67;47.47;100982.84;5036467;28;66214;-28
2021/03/22 04:46:50;;;;;;;5.03;2.38;;;;;;;32.69;47.64;100978.03;5036418;28;69826;-28
2021/03/22 04:49:23;;;;;;;2.55;2.45;;;;;;;32.71;47.62;100971.31;5035389;28;66171;-28
2021/03/22 04:51:52;;;;;;;3.13;2.75;;;;;;;32.62;47.18;100948.22;5035653;28;69119;-28
2021/03/22 04:54:22;;;;;;;2.33;2.22;;;;;;;32.77;47.35;100955.97;5038116;28;66044;-30
2021/03/22 04:56:51;;;;;;;2.75;2.55;;;;;;;32.79;47.14;100959.28;5034040;28;70150;-29
2021/03/22 04:59:20;;;;;;;2.60;2.40;;;;;;;32.81;47.01;100957.16;5033904;28;64675;-30
2021/03/22 05:01:50;;;;;;;3.45;2.05;;;;;;;32.81;47.46;100948.19;5035871;28;70371;-29
2021/03/22 05:04:20;;;;;;;2.50;2.30;;;;;;;32.82;47.23;100947.97;5036789;28;66358;-29
2021/03/22 05:06:49;;;;;;;2.13;2.03;;;;;;;32.88;46.73;100946.19;5030522;28;69275;-29
2021/03/22 05:09:19;;;;;;;2.35;2.15;;;;;;;32.87;47.14;100945.34;5036401;28;65950;-28
2021/03/22 05:11:48;;;;;;;2.15;2.05;;;;;;;32.88;47.23;100938.88;5036122;28;70190;-29
2021/03/22 05:14:18;;;;;;;2.15;2.05;;;;;;;32.91;47.47;100941.13;5035612;28;65383;-29
2021/03/22 05:16:48;;;;;;;2.33;2.22;;;;;;;32.92;47.33;100929.19;5034683;28;70372;-28
2021/03/22 05:19:21;;;;;;;1.92;1.73;;;;;;;32.98;46.95;100923.88;5036116;28;66216;-29
2021/03/22 05:21:54;;;;;;;1.95;1.85;;;;;;;33.01;46.90;100912.56;5025334;28;69713;-30
2021/03/22 05:24:24;;;;;;;2.22;2.13;;;;;;;32.93;46.89;100900.13;5035037;28;65979;-28
2021/03/22 05:26:54;;;;;;;2.17;2.08;;;;;;;32.91;46.93;100886.78;5032210;28;69997;-29
2021/03/22 05:29:26;;;;;;;1.90;1.80;;;;;;;33.03;47.02;100900.41;5036464;28;66118;-29
2021/03/22 05:31:55;;;;;;;2.28;2.17;;;;;;;33.09;46.67;100893.19;5034032;28;69946;-28
2021/03/22 05:34:25;;;;;;;2.45;2.25;;;;;;;33.09;46.89;100894.03;5034435;28;66056;-30
2021/03/22 05:36:54;;;;;;;2.40;2.20;;;;;;;33.11;46.66;100885.66;5034149;28;70378;-30
2021/03/22 05:39:24;;;;;;;2.33;2.22;;;;;;;33.11;46.77;100880.22;5037303;28;66299;-28
2021/03/22 05:42:16;;;;;;;2.75;2.38;;;;;;;33.11;46.90;100878.31;5033520;28;69229;-30
2021/03/22 05:44:54;;;;;;;2.70;2.50;;;;;;;33.04;46.42;100857.75;5035185;28;66034;-30
2021/03/22 05:47:35;;;;;;;2.38;2.17;;;;;;;33.19;46.57;100870.88;5027474;28;69117;-29
2021/03/22 05:50:09;;;;;;;2.38;2.17;;;;;;;33.21;46.32;100868.75;5037471;28;65284;-29
2021/03/22 05:53:15;;;;;;;2.33;2.22;;;;;;;33.18;46.46;100859.16;5035069;28;69331;-30
2021/03/22 05:55:54;;;;;;;2.28;2.15;;;;;;;33.22;46.36;100854.09;5036089;28;65872;-33
2021/03/22 05:58:58;;;;;;;2.50;2.30;;;;;;;33.28;46.52;100842.28;5038314;28;69183;-30
2021/03/22 06:01:43;;;;;;;2.38;2.28;;;;;;;33.29;46.47;100836.63;5028743;28;66193;-30
2021/03/22 06:04:12;;;;;;;2.55;2.45;;;;;;;33.38;46.49;100829.75;5036112;28;70469;-29
2021/03/22 06:06:44;;;;;;;2.80;2.60;;;;;;;33.49;46.35;100814.47;5035733;28;66149;-32
2021/03/22 06:09:29;;;;;;;3.83;2.72;;;;;;;33.52;46.13;100816.75;5037622;28;70311;-29
2021/03/22 06:12:23;;;;;;;2.78;2.58;;;;;;;33.50;46.31;100812.56;5031598;28;66924;-29
2021/03/22 06:15:05;;;;;;;2.65;2.55;;;;;;;33.51;46.23;100800.63;5036846;28;70129;-29
2021/03/22 06:17:48;;;;;;;2.80;2.60;;;;;;;33.64;45.99;100799.56;5035054;28;66951;-29
2021/03/22 06:20:26;;;;;;;2.72;2.58;;;;;;;33.59;46.19;100792.13;5036620;28;69830;-28
2021/03/22 06:23:09;;;;;;;2.60;2.40;;;;;;;33.61;46.06;100790.00;5034011;28;66365;-29
2021/03/22 06:25:38;;;;;;;2.10;2.00;;;;;;;33.64;45.99;100786.78;5033592;28;69258;-28
2021/03/22 06:28:24;;;;;;;2.50;2.40;;;;;;;33.71;46.16;100779.31;5036611;28;66213;-29
2021/03/22 06:31:06;;;;;;;2.58;2.45;;;;;;;33.58;46.04;100744.25;5037887;28;70732;-30
2021/03/22 06:33:37;;;;;;;;;;;;;;;33.76;46.10;100765.78;5034386;28;67040;-29
2021/03/22 06:36:09;;;;;;;1.92;1.83;;;;;;;33.87;45.61;100766.00;5037152;28;69921;-29
2021/03/22 06:38:38;;;;;;;;;;;;;;;33.86;45.71;100762.44;5031387;28;66122;-28
2021/03/22 06:41:44;;;;;;;3.97;2.83;;;;;;;33.85;45.79;100755.38;5035177;28;70121;-29
2021/03/22 06:44:34;;;;;;;3.35;2.92;;;;;;;33.86;45.56;100729.81;5034893;28;65136;-27
2021/03/22 06:47:05;;;;;;;5.30;2.92;;;;;;;34.03;45.69;100743.44;5035150;28;71581;-28
2021/03/22 06:49:38;;;;;;;2.50;2.40;;;;;;;33.96;45.37;100726.41;5034890;28;66509;-28
2021/03/22 06:52:17;;;;;;;2.85;2.75;;;;;;;34.09;45.42;100741.66;5034673;28;69756;-31
2021/03/22 06:54:49;;;;;;;3.00;2.85;;;;;;;33.93;45.62;100714.13;5034846;28;66555;-30
2021/03/22 06:57:26;;;;;;;2.88;2.70;;;;;;;34.09;45.50;100738.94;5036080;28;70614;-29
2021/03/22 07:00:28;;;;;;;3.50;3.08;;;;;;;34.20;45.28;100732.59;5035643;28;66003;-28
2021/03/22 07:03:00;;;;;;;2.60;2.50;;;;;;;34.24;45.20;100734.59;5036271;28;70096;-29
2021/03/22 07:05:33;;;;;;;3.28;2.90;;;;;;;34.30;45.06;100738.22;5035725;28;65476;-28
2021/03/22 07:08:12;;;;;;;4.35;4.07;;;;;;;34.25;45.02;100719.06;5035289;28;69909;-28
2021/03/22 07:11:15;;;;;;;7.88;4.90;;;;;;;34.24;45.25;100726.41;5034985;28;66875;-29
2021/03/22 07:14:21;;;;;;;5.82;5.28;;;;;;;34.21;45.39;100721.47;5034277;28;69803;-29
2021/03/22 07:17:15;;;;;;;4.90;4.43;;;;;;;34.09;45.33;100696.22;5028265;28;65227;-29
2021/03/22 07:20:06;;;;;;;7.40;4.45;;;;;;;34.18;44.94;100694.72;5032512;28;69122;-28
2021/03/22 07:22:35;;;;;;;4.53;4.28;;;;;;;34.32;45.29;100699.84;5030721;28;65399;-30
2021/03/22 07:25:41;;;;;;;4.13;3.72;;;;;;;34.06;45.38;100657.78;5031178;28;69981;-29
2021/03/22 07:28:33;;;;;;;3.83;3.63;;;;;;;34.37;44.90;100691.75;5030925;28;66674;-29
2021/03/22 07:31:24;;;;;;;3.53;3.22;;;;;;;34.41;45.16;100699.19;5032620;28;69040;-28
2021/03/22 07:34:15;;;;;;;3.63;3.03;;;;;;;34.46;45.10;100687.53;5030893;28;65222;-28
2021/03/22 07:37:00;;;;;;;3.45;3.25;;;;;;;34.55;44.79;100683.31;5029568;28;70172;-28
2021/03/22 07:39:57;;;;;;;6.55;2.65;;;;;;;34.54;44.83;100675.38;5033716;28;65533;-29
2021/03/22 07:43:05;;;;;;;3.10;2.90;;;;;;;34.53;44.39;100668.31;5031114;28;70182;-29
2021/03/22 07:45:46;;;;;;;2.50;2.30;;;;;;;34.67;44.73;100673.16;5029094;28;66210;-28
2021/03/22 07:48:31;;;;;;;2.75;2.55;;;;;;;34.70;44.24;100666.38;5024859;28;69395;-29
2021/03/22 07:51:21;;;;;;;2.30;2.20;;;;;;;34.73;44.42;100663.16;5031839;28;65863;-29
2021/03/22 07:54:28;;;;;;;2.45;2.25;;;;;;;34.77;43.83;100656.16;5031168;28;68991;-29
2021/03/22 07:57:32;;;;;;;2.22;2.03;;;;;;;34.85;44.46;100657.59;5028285;28;66226;-29
2021/03/22 08:00:39;;;;;;;1.90;1.80;;;;;;;34.90;44.00;100657.66;5031693;28;72514;-28
2021/03/22 08:03:14;;;;;;;1.80;1.70;;;;;;;34.99;44.16;100655.31;5032881;28;65181;-29
2021/03/22 08:06:06;;;;;;;1.75;1.65;;;;;;;35.03;44.10;100651.81;5038937;27;69809;-29
2021/03/22 08:09:02;;;;;;;1.70;1.60;;;;;;;35.02;43.60;100655.63;5037421;28;66256;-29
2021/03/22 08:11:44;;;;;;;1.55;1.45;;;;;;;35.00;44.09;100651.53;5039038;28;70142;-28
2021/03/22 08:14:29;;;;;;;1.45;1.35;;;;;;;35.04;44.15;100648.00;5030268;28;65902;-28
2021/03/22 08:17:20;;;;;;;1.77;1.67;;;;;;;35.14;43.93;100656.34;5037984;28;71027;-29
2021/03/22 08:20:15;;;;;;;2.63;1.88;;;;;;;35.19;43.63;100649.28;5036260;28;66001;-29
2021/03/22 08:23:17;;;;;;;2.00;1.80;;;;;;;35.21;43.44;100652.59;5035787;28;70048;-28
2021/03/22 08:25:52;;;;;;;3.45;2.00;;;;;;;35.35;43.66;100656.56;5031358;28;66772;-28
2021/03/22 08:28:25;;;;;;;;;;;;;;;35.32;43.68;100651.63;5037532;28;69933;-28
2021/03/22 08:31:13;;;;;;;2.42;2.22;;;;;;;35.39;43.50;100649.53;5034809;28;65437;-27
2021/03/22 08:34:08;;;;;;;4.18;2.20;;;;;;;35.42;43.47;100649.03;5030581;28;69202;-27
2021/03/22 08:36:44;;;;;;;2.40;2.20;;;;;;;35.44;43.29;100660.50;5033779;28;66441;-29
2021/03/22 08:39:45;;;;;;;3.33;2.22;;;;;;;35.31;43.29;100637.19;5026044;28;69633;-28
2021/03/22 08:42:24;;;;;;;2.22;2.03;;;;;;;35.50;43.37;100664.94;5039118;28;65829;-28
2021/03/22 08:45:06;;;;;;;3.38;2.53;;;;;;;35.55;43.22;100656.78;5038183;28;69064;-27
2021/03/22 08:47:56;;;;;;;3.38;2.55;;;;;;;35.52;43.59;100638.22;5039270;28;66196;-29
2021/03/22 08:50:31;;;;;;;3.17;2.80;;;;;;;35.71;43.40;100656.97;5030471;28;69798;-28
2021/03/22 08:53:09;;;;;;;3.75;2.95;;;;;;;35.70;43.23;100661.59;5031521;28;65872;-28
2021/03/22 08:55:47;;;;;;;4.28;2.45;;;;;;;35.75;43.53;100658.09;5032949;28;69669;-30
2021/03/22 08:58:35;;;;;;;3.85;2.70;;;;;;;35.78;42.79;100649.41;5051200;28;66141;-29
2021/03/22 09:01:08;;;;;;;2.40;2.20;;;;;;;35.86;43.22;100654.38;5027784;28;70544;-28
2021/03/22 09:03:40;;;;;;;4.43;2.72;;;;;;;35.90;43.03;100651.94;5034582;28;65921;-29
2021/03/22 09:06:27;;;;;;;4.15;2.10;;;;;;;35.82;42.69;100642.31;5035073;28;70565;-28
2021/03/22 09:09:16;;;;;;;4.43;2.60;;;;;;;35.93;43.38;100662.34;5033801;28;66298;-28
2021/03/22 09:11:50;;;;;;;2.97;2.38;;;;;;;35.82;42.79;100634.13;5032280;28;69196;-29
2021/03/22 09:14:26;;;;;;;2.58;2.38;;;;;;;36.05;42.72;100668.47;5033079;28;66382;-30
2021/03/22 09:16:57;;;;;;;6.85;2.70;;;;;;;36.06;43.06;100663.84;5034749;28;69864;-29
2021/03/22 09:19:44;;;;;;;3.47;2.88;;;;;;;36.05;42.85;100668.47;5030890;28;66828;-28
2021/03/22 09:22:28;;;;;;;3.70;2.90;;;;;;;36.09;42.83;100674.25;5038048;28;68673;-30
2021/03/22 09:24:58;;;;;;;4.60;2.30;;;;;;;36.08;43.21;100672.59;5038532;27;65552;-29
2021/03/22 09:27:31;;;;;;;2.80;2.30;;;;;;;36.12;43.45;100673.72;5037489;28;70120;-28
2021/03/22 09:30:01;;;;;;;2.80;2.55;;;;;;;36.16;43.38;100678.41;5037165;28;66099;-29
2021/03/22 09:32:32;;;;;;;2.47;2.28;;;;;;;36.16;42.82;100683.88;5047835;27;70339;-30
2021/03/22 09:35:17;;;;;;;3.42;2.78;;;;;;;36.12;42.92;100684.66;5037075;28;66893;-28
2021/03/22 09:37:51;;;;;;;3.55;2.30;;;;;;;36.12;43.01;100685.47;5038940;28;69355;-28
2021/03/22 09:40:21;;;;;;;2.80;2.33;;;;;;;36.18;42.85;100689.06;5040434;28;65822;-29
2021/03/22 09:43:08;;;;;;;4.03;2.60;;;;;;;36.13;43.29;100691.75;5036736;28;69271;-28
2021/03/22 09:46:03;;;;;;;3.25;2.80;;;;;;;36.13;43.31;100699.94;5039326;28;65148;-28
2021/03/22 09:48:41;;;;;;;2.88;2.60;;;;;;;36.19;43.12;100701.63;5022269;28;70395;-29
2021/03/22 09:51:10;;;;;;;3.85;2.45;;;;;;;36.18;42.95;100705.44;5033091;28;66757;-29
2021/03/22 09:53:58;;;;;;;4.70;2.50;;;;;;;36.08;43.17;100708.06;5035436;28;70132;-32
2021/03/22 09:56:35;;;;;;;3.33;2.53;;;;;;;36.17;42.98;100714.72;5016212;28;66111;-30
2021/03/22 09:59:25;;;;;;;2.90;2.60;;;;;;;35.92;43.77;100686.09;5034974;28;70041;-30
2021/03/22 10:01:58;;;;;;;2.55;2.35;;;;;;;36.00;43.15;100693.00;5038452;28;66822;-32
2021/03/22 10:04:32;;;;;;;2.47;2.25;;;;;;;36.19;42.88;100723.47;5034593;28;70516;-31
2021/03/22 10:07:04;;;;;;;3.17;2.42;;;;;;;36.17;43.57;100721.00;5033491;28;65346;-31
2021/03/22 10:10:00;;;;;;;3.35;2.60;;;;;;;36.06;43.30;100707.53;5036363;28;70153;-29
2021/03/22 10:12:41;;;;;;;7.70;4.47;;;;;;;36.14;44.07;100732.44;5026224;28;65166;-30
2021/03/22 10:15:11;;;;;;;17.95;5.72;;;;;;;36.14;44.48;100731.63;5027651;28;70397;-30
2021/03/22 10:17:48;;;;;;;14.05;7.32;;;;;;;36.09;44.75;100737.03;5031398;28;67567;-30
2021/03/22 10:20:33;;;;;;;22.75;8.52;;;;;;;36.13;44.67;100751.81;5030230;27;69572;-31
2021/03/22 10:23:32;;;;;;;18.40;8.20;;;;;;;36.06;44.77;100757.50;5040201;27;65438;-31
2021/03/22 10:26:35;;;;;;;27.10;8.65;;;;;;;36.01;45.16;100746.50;5039372;27;72796;-30
2021/03/22 10:29:22;;;;;;;28.77;8.93;;;;;;;35.83;44.83;100736.78;5032032;28;66659;-29
2021/03/22 10:32:09;;;;;;;19.10;7.97;;;;;;;35.95;45.98;100767.47;5037013;27;71532;-32
2021/03/22 10:35:02;;;;;;;15.77;7.50;;;;;;;35.92;45.80;100773.44;5034634;28;66418;-29
2021/03/22 10:37:38;;;;;;;10.25;5.90;;;;;;;35.99;45.21;100771.31;5033934;28;70044;-29
2021/03/22 10:40:44;;;;;;;9.25;5.65;;;;;;;35.88;46.13;100772.28;5066212;27;65756;-29
2021/03/22 10:43:26;;;;;;;6.93;6.07;;;;;;;35.87;46.75;100778.84;5023514;28;70312;-30
2021/03/22 10:45:58;;;;;;;18.05;7.72;;;;;;;35.83;45.98;100780.44;5032650;28;66827;-30
2021/03/22 10:48:32;;;;;;;16.23;8.38;;;;;;;35.82;45.80;100781.50;5036569;28;69312;-29
2021/03/22 10:51:12;;;;;;;20.00;8.52;;;;;;;35.78;45.32;100794.03;5036526;28;65406;-31
2021/03/22 10:54:00;;;;;;;20.92;9.18;;;;;;;35.70;45.34;100797.22;5034707;28;69505;-31
2021/03/22 10:56:53;;;;;;;20.60;9.77;;;;;;;35.68;45.43;100807.56;5030305;28;65895;-35
2021/03/22 10:59:25;;;;;;;30.85;9.55;;;;;;;35.67;45.56;100806.72;5064850;27;69761;-30
2021/03/22 11:01:58;;;;;;;25.60;9.23;;;;;;;35.62;45.70;100809.41;5034998;28;66189;-29
2021/03/22 11:04:35;;;;;;;23.95;9.98;;;;;;;35.51;45.82;100811.13;5034860;28;71080;-29
2021/03/22 11:07:16;;;;;;;25.55;9.43;;;;;;;35.29;45.28;100785.75;5035986;27;66806;-30
2021/03/22 11:10:16;;;;;;;31.40;10.63;;;;;;;35.42;45.23;100807.22;5034909;28;69432;-31
2021/03/22 11:12:48;;;;;;;17.48;8.57;;;;;;;35.45;45.57;100814.88;5034485;28;65417;-32
2021/03/22 11:15:39;;;;;;;31.00;9.95;;;;;;;35.30;45.83;100826.44;5036590;28;43970;-30
2021/03/22 11:18:17;;;;;;;18.80;10.43;;;;;;;35.30;46.32;100822.84;5029854;28;65416;-32
2021/03/22 11:20:50;;;;;;;16.25;8.95;;;;;;;35.26;45.15;100824.44;5024895;28;70031;-34
2021/03/22 11:23:27;;;;;;;15.88;8.88;;;;;;;35.06;44.49;100814.91;5029937;28;67837;-30
2021/03/22 11:26:09;;;;;;;14.55;7.38;;;;;;;34.90;43.46;100823.91;5034209;28;70051;-30
2021/03/22 11:28:40;;;;;;;10.23;6.63;;;;;;;34.68;42.29;100824.66;5034612;27;66492;-30
2021/03/22 11:31:40;;;;;;;6.68;5.28;;;;;;;34.42;40.52;100830.72;5036046;28;70153;-32
2021/03/22 11:34:20;;;;;;;5.85;5.35;;;;;;;34.28;39.41;100834.84;5034391;27;66750;-30
2021/03/22 11:37:05;;;;;;;7.85;4.57;;;;;;;34.05;39.32;100846.66;5032490;28;70565;-30
2021/03/22 11:39:38;;;;;;;6.32;4.28;;;;;;;33.91;39.51;100846.91;5035844;28;65513;-28
2021/03/22 11:42:15;;;;;;;6.47;4.50;;;;;;;33.81;38.94;100852.97;5036269;28;69890;-28
2021/03/22 11:44:45;;;;;;;10.77;4.20;;;;;;;33.66;39.30;100855.38;5031833;27;65396;-28
2021/03/22 11:47:36;;;;;;;5.78;4.40;;;;;;;33.50;38.24;100866.97;5036395;28;69201;-33
2021/03/22 11:50:30;;;;;;;7.13;3.83;;;;;;;33.29;38.56;100865.66;5035427;28;66399;-29
2021/03/22 11:53:20;;;;;;;10.70;4.05;;;;;;;33.26;39.25;100874.31;5034073;28;69762;-27
2021/03/22 11:55:52;;;;;;;5.40;3.28;;;;;;;32.99;39.67;100849.44;5034918;28;67247;-28
2021/03/22 11:58:39;;;;;;;16.58;3.80;;;;;;;33.00;38.70;100881.03;5034873;28;69898;-28
2021/03/22 12:01:19;;;;;;;29.13;4.10;;;;;;;32.61;38.31;100853.41;5029040;28;66125;-29
2021/03/22 12:04:04;;;;;;;33.70;4.38;;;;;;;32.72;38.82;100874.34;5036258;28;69353;-30
2021/03/22 12:06:48;;;;;;;46.05;5.45;;;;;;;32.39;39.07;100856.63;5035490;28;66482;-27
2021/03/22 12:09:17;;;;;;;38.78;5.53;;;;;;;32.59;40.35;100894.38;5028514;28;69626;-29
2021/03/22 12:11:49;;;;;;;31.02;5.38;;;;;;;32.54;40.11;100896.97;5035697;28;66384;-28
2021/03/22 12:14:18;;;;;;;21.23;5.28;;;;;;;32.42;39.72;100902.31;5032136;28;69895;-28
2021/03/22 12:16:49;;;;;;;11.63;4.53;;;;;;;32.36;39.33;100895.09;5034510;28;66270;-29
2021/03/22 12:19:36;;;;;;;9.35;4.20;;;;;;;32.15;38.75;100899.16;5035485;28;70015;-28